Date,TemperatureHighF,TemperatureAvgF,TemperatureLowF,DewpointHighF,DewpointAvgF,DewpointLowF,HumidityHigh,HumidityAvg,HumidityLow,PressureMaxIn,PressureMinIn,WindSpeedMaxMPH,WindSpeedAvgMPH,GustSpeedMaxMPH,PrecipitationSumIn
2013-1-1,82,74,68,73,69,67,98,87,68,29.64,29.54,8,2,18,0.00
2013-1-2,81,73,66,71,67,64,96,83,61,29.61,29.52,9,3,19,0.01
2013-1-3,80,72,66,74,69,64,98,91,78,29.67,29.56,9,3,19,0.00
2013-1-4,83,76,68,73,71,67,98,84,66,29.72,29.61,9,4,19,0.00
2013-1-5,82,77,73,72,70,67,90,78,62,29.73,29.63,11,6,26,0.00
2013-1-6,80,77,75,72,70,69,88,80,69,29.68,29.59,10,6,22,0.00
2013-1-7,82,76,72,72,70,68,96,82,64,29.67,29.57,12,6,23,0.01
2013-1-8,80,76,69,73,70,67,94,83,72,29.70,29.59,11,6,28,0.01
2013-1-9,76,75,73,71,70,70,92,86,82,29.67,29.63,10,8,24,0.00
2013-1-10,79,74,69,71,69,67,93,84,72,29.71,29.62,11,4,24,0.00
2013-1-11,80,72,66,70,66,64,94,82,60,29.64,29.51,8,2,20,0.00
2013-1-12,75,69,67,70,67,66,97,95,86,29.56,29.50,3,1,6,0.00
2013-1-15,81,72,65,70,66,64,97,83,61,29.59,29.50,9,3,18,0.00
2013-1-16,77,72,66,71,68,65,95,87,76,29.60,29.51,10,3,20,0.00
2013-1-17,81,74,66,70,67,64,96,81,59,29.62,29.52,8,3,18,0.00
2013-1-18,81,73,68,72,69,67,98,88,63,29.65,29.55,6,2,14,0.01
2013-1-19,72,66,64,69,65,63,98,96,91,29.65,29.56,2,0,6,0.00
2013-1-21,81,73,65,72,69,64,97,87,72,29.59,29.50,8,3,16,0.00
2013-1-22,82,75,67,73,70,66,97,87,67,29.63,29.54,11,4,19,0.01
2013-1-23,83,76,71,74,72,70,98,88,71,29.67,29.57,8,4,17,0.00
2013-1-24,82,76,70,71,70,67,95,82,61,29.66,29.55,8,4,16,0.00
2013-1-25,83,73,66,72,68,65,97,84,61,29.66,29.55,8,2,19,0.00
2013-1-26,74,71,70,72,70,69,99,96,94,29.62,29.57,8,2,19,0.00
2013-1-27,83,74,67,72,70,66,99,87,66,29.69,29.60,8,2,16,0.01
2013-1-28,82,73,67,72,69,66,97,87,69,29.72,29.62,10,3,21,0.00
2013-1-29,80,72,67,72,68,66,98,89,72,29.67,29.57,9,2,21,0.01
2013-1-30,81,74,67,71,69,66,98,85,67,29.65,29.56,10,4,23,0.00
2013-1-31,81,75,70,73,71,69,98,87,72,29.64,29.55,10,4,20,0.01
2013-2-1,77,72,69,72,70,68,98,92,81,29.64,29.54,6,2,16,0.01
2013-2-2,79,68,63,68,65,63,99,93,64,29.61,29.55,7,1,13,0.01
2013-2-3,81,74,66,69,66,62,96,80,53,29.57,29.46,9,3,18,0.02
2013-2-4,80,71,63,69,64,62,97,80,59,29.57,29.46,10,3,20,0.02
2013-2-5,79,71,61,69,65,60,95,83,61,29.61,29.51,7,2,15,0.01
2013-2-6,80,73,68,70,67,64,97,83,60,29.60,29.49,9,3,22,0.71
2013-2-7,72,66,65,69,65,64,98,95,91,29.56,29.49,2,1,7,0.07
2013-2-8,80,75,72,73,70,69,95,85,73,29.57,29.48,9,4,20,0.01
2013-2-9,78,70,67,71,68,65,98,93,80,29.59,29.50,4,1,8,0.00
2013-2-11,81,73,68,71,68,66,96,87,67,29.66,29.58,10,4,23,0.02
2013-2-12,80,72,64,67,64,62,92,77,59,29.65,29.57,9,3,18,0.01
2013-2-13,82,72,62,68,64,60,96,79,50,29.63,29.54,8,3,15,0.01
2013-2-14,81,74,67,71,69,65,96,85,69,29.64,29.56,8,3,16,0.00
2013-2-15,82,76,70,72,70,69,97,84,69,29.65,29.54,10,5,21,0.00
2013-2-16,81,74,72,70,69,68,92,85,65,29.59,29.52,9,4,17,0.00
2013-2-19,82,75,71,70,69,66,90,80,59,29.67,29.56,11,6,28,0.05
2013-2-20,81,75,71,72,69,67,93,82,68,29.62,29.49,9,5,21,0.14
2013-2-21,82,76,73,72,70,68,92,82,67,29.60,29.49,11,6,20,0.00
2013-2-22,83,74,65,71,68,64,96,82,60,29.62,29.52,8,2,18,0.00
2013-2-23,78,69,66,69,67,65,95,92,72,29.61,29.54,7,1,22,0.00
2013-2-24,81,73,66,72,68,64,96,85,68,29.60,29.48,10,4,21,0.01
2013-2-25,82,74,66,71,69,65,97,83,63,29.56,29.45,10,4,17,0.01
2013-2-26,82,76,71,71,70,67,92,81,65,29.60,29.50,9,5,18,0.00
2013-2-27,82,77,73,72,70,69,92,82,65,29.61,29.51,10,6,20,0.00
2013-2-28,82,76,70,70,69,67,90,79,63,29.58,29.46,9,4,15,0.00
2013-3-1,82,75,68,70,68,67,95,80,64,29.54,29.42,9,3,16,0.00
2013-3-2,72,70,68,68,67,65,92,89,86,29.49,29.42,1,0,3,0.00
2013-3-3,85,76,68,74,70,66,94,83,62,29.55,29.44,9,3,18,0.01
2013-3-4,86,76,70,74,72,69,97,89,62,29.60,29.50,8,2,17,0.43
2013-3-5,77,73,70,72,69,65,97,88,79,29.62,29.53,6,4,14,0.02
2013-3-6,82,75,68,70,67,65,92,79,64,29.62,29.51,8,2,17,0.00
2013-3-7,84,74,69,74,70,67,97,88,65,29.60,29.50,8,2,24,0.41
2013-3-8,82,73,68,72,69,66,97,86,67,29.60,29.51,7,3,15,0.02
2013-3-9,77,68,64,69,65,63,96,92,75,29.58,29.50,6,1,11,0.00
2013-3-10,81,73,67,68,65,63,94,77,56,29.56,29.46,8,4,20,0.00
2013-3-11,81,72,65,65,63,60,91,74,50,29.56,29.46,10,3,23,0.00
2013-3-12,80,73,65,65,63,59,92,72,51,29.61,29.51,9,4,18,0.00
2013-3-13,81,75,71,66,62,58,77,64,49,29.59,29.48,9,4,19,0.00
2013-3-14,81,74,68,66,63,60,88,71,50,29.57,29.43,8,3,16,0.00
2013-3-15,83,74,66,67,62,58,93,69,43,29.57,29.45,6,2,14,0.00
2013-3-16,77,68,64,66,63,62,92,85,67,29.58,29.50,4,1,8,0.00
2013-3-17,81,73,66,70,68,64,96,85,64,29.65,29.54,10,4,20,0.43
2013-3-18,80,73,67,71,68,66,97,84,67,29.64,29.53,10,4,24,0.11
2013-3-19,81,74,67,72,69,67,98,86,64,29.58,29.46,10,4,19,0.12
2013-3-20,82,76,68,73,70,67,95,82,64,29.53,29.42,10,5,19,0.00
2013-3-21,84,78,75,73,72,70,88,80,69,29.52,29.41,10,5,17,0.00
2013-3-22,85,78,72,75,73,70,97,85,69,29.58,29.46,9,4,18,0.12
2013-3-30,72,71,71,70,70,70,96,95,95,29.67,29.66,5,3,15,0.00
2013-3-31,78,74,71,73,71,70,97,92,83,29.67,29.59,11,5,22,0.05
2013-4-1,82,77,74,73,72,70,94,83,71,29.66,29.56,11,8,23,0.05
2013-4-2,82,78,75,73,72,71,91,83,69,29.62,29.52,12,6,22,0.05
2013-4-3,84,78,73,74,72,69,95,84,60,29.62,29.51,9,4,18,0.03
2013-4-4,84,78,74,73,71,67,94,80,56,29.64,29.53,10,6,20,0.12
2013-4-5,81,76,72,74,72,70,96,87,75,29.62,29.50,9,5,18,0.04
2013-4-6,83,78,73,75,73,71,96,86,71,29.60,29.50,11,5,22,0.03
2013-4-7,76,73,72,73,71,70,97,94,89,29.57,29.50,3,1,8,0.00
2013-4-8,84,79,75,74,72,67,93,82,56,29.60,29.50,10,6,22,0.01
2013-4-9,84,78,73,74,72,68,96,82,58,29.61,29.49,10,5,19,0.02
2013-4-10,84,78,71,73,70,65,95,79,57,29.59,29.49,11,5,20,0.01
2013-4-11,83,78,72,70,68,63,87,74,51,29.58,29.48,10,5,20,0.00
2013-4-12,84,77,69,73,70,67,95,80,60,29.57,29.48,10,5,20,0.00
2013-4-13,81,75,72,73,72,70,96,90,75,29.56,29.49,9,2,16,0.00
2013-4-14,76,76,76,72,71,71,86,85,85,29.56,29.55,6,5,10,0.00
2013-4-15,83,78,75,75,72,70,90,83,70,29.60,29.51,10,6,19,0.00
2013-4-16,84,76,70,73,70,69,96,83,61,29.59,29.48,10,4,19,0.00
2013-4-17,83,76,69,73,70,68,99,84,68,29.56,29.47,11,5,22,0.00
2013-4-18,82,76,74,73,70,68,91,82,63,29.58,29.49,11,6,25,0.00
2013-4-19,81,77,73,71,70,69,91,80,68,29.62,29.52,12,8,25,0.00
2013-4-20,76,75,75,71,70,70,87,85,83,29.60,29.54,8,6,21,0.00
2013-4-21,81,76,69,71,68,65,95,78,64,29.60,29.51,11,5,27,0.00
2013-4-22,82,75,65,69,66,63,94,76,57,29.57,29.47,10,5,18,0.00
2013-4-23,82,75,68,72,69,66,95,82,68,29.55,29.45,11,5,24,0.00
2013-4-24,81,74,69,73,71,68,97,90,73,29.56,29.47,9,3,16,0.21
2013-4-25,82,74,67,72,69,66,99,85,65,29.57,29.47,7,2,14,0.09
2013-4-26,85,76,66,72,69,66,97,80,57,29.56,29.47,9,3,19,0.04
2013-4-27,72,70,68,70,68,67,96,94,90,29.54,29.48,1,0,5,0.00
2013-4-28,84,77,70,73,71,69,98,82,63,29.53,29.43,10,3,17,0.00
2013-4-29,83,76,69,73,71,68,96,84,68,29.53,29.46,9,3,17,0.00
2013-4-30,84,77,70,74,72,69,97,85,67,29.54,29.48,10,4,19,0.00
2013-5-1,85,78,74,73,72,67,91,80,56,29.54,29.45,11,5,21,0.00
2013-5-2,84,78,73,75,73,71,94,85,70,29.48,29.39,9,3,17,0.00
2013-5-3,89,80,72,75,73,71,96,79,59,29.45,29.34,9,2,18,0.00
2013-5-4,85,76,73,75,73,71,94,88,67,29.42,29.34,6,1,14,0.00
2013-5-5,88,80,73,76,74,71,95,83,63,29.48,29.33,8,2,16,0.00
2013-5-6,87,78,73,77,74,71,97,90,66,29.56,29.43,8,2,15,0.36
2013-5-7,85,79,74,78,75,73,98,89,73,29.62,29.48,10,3,19,0.39
2013-5-8,82,77,74,77,75,72,96,92,83,29.66,29.55,9,4,20,0.45
2013-5-9,83,78,75,76,74,72,96,88,76,29.66,29.56,10,5,21,0.16
2013-5-10,83,77,71,76,73,69,96,89,77,29.64,29.49,9,5,18,0.10
2013-5-11,85,77,69,75,71,68,98,84,63,29.57,29.45,8,2,16,0.02
2013-5-12,85,77,71,75,72,70,96,86,68,29.55,29.46,8,2,14,0.00
2013-5-13,85,79,71,77,74,70,98,87,72,29.57,29.48,9,4,19,0.02
2013-5-14,82,78,74,76,74,70,96,90,80,29.58,29.49,11,4,20,0.02
2013-5-15,83,77,73,76,74,72,97,92,77,29.56,29.48,8,3,17,0.02
2013-5-16,85,78,72,74,73,71,99,86,66,29.56,29.48,7,3,15,0.02
2013-5-17,85,78,71,75,72,70,97,84,68,29.61,29.51,9,4,19,0.01
2013-5-18,85,78,70,74,72,68,96,82,65,29.60,29.52,8,3,19,0.01
2013-5-19,85,79,74,75,72,70,93,80,61,29.58,29.50,10,5,18,0.00
2013-5-20,85,79,75,74,73,71,90,82,65,29.58,29.49,10,6,19,0.00
2013-5-21,81,77,72,75,73,70,93,88,77,29.55,29.48,8,4,18,0.00
2013-5-22,81,76,72,76,73,71,98,91,80,29.58,29.47,10,5,23,0.00
2013-5-23,84,79,75,74,72,70,89,80,64,29.59,29.51,11,6,24,0.02
2013-5-24,84,78,73,76,74,71,95,86,74,29.59,29.50,10,6,19,0.04
2013-5-25,77,76,75,74,74,73,94,91,89,29.58,29.55,5,3,13,0.00
2013-5-26,84,79,75,76,75,73,95,87,76,29.61,29.53,9,5,18,0.02
2013-5-27,85,79,73,76,74,71,97,87,71,29.61,29.51,10,5,28,0.03
2013-5-28,84,79,73,77,75,72,97,88,72,29.59,29.52,8,4,21,0.02
2013-5-29,85,80,75,76,74,73,93,83,70,29.60,29.51,10,6,20,0.01
2013-5-30,84,78,76,76,72,-100,91,84,74,29.60,29.52,9,6,21,0.01
2013-5-31,82,78,75,77,74,72,95,89,79,29.62,29.54,8,5,17,0.34
2013-6-1,84,79,76,75,74,72,92,84,73,29.61,29.54,10,6,20,0.05
2013-6-2,83,79,76,76,74,73,94,86,72,29.60,29.53,10,6,22,0.02
2013-6-3,84,80,76,77,75,74,93,87,77,29.59,29.51,10,6,25,0.02
2013-6-4,80,77,72,77,75,70,97,92,86,29.63,29.51,11,6,25,0.02
2013-6-5,84,80,77,78,76,74,94,87,77,29.58,29.47,10,5,23,0.02
2013-6-6,85,80,76,74,72,69,92,79,60,29.58,29.49,9,4,19,0.01
2013-6-7,84,78,73,75,73,70,94,83,63,29.58,29.50,9,5,18,0.00
2013-6-8,81,76,74,74,73,72,95,90,74,29.57,29.52,5,3,18,0.00
2013-6-9,86,80,76,76,75,73,94,83,70,29.60,29.53,9,6,23,0.00
2013-6-10,83,79,76,76,75,74,95,88,77,29.60,29.52,9,5,23,0.01
2013-6-11,84,80,77,77,75,73,93,85,70,29.61,29.53,9,5,19,0.01
2013-6-12,84,79,74,78,76,72,96,89,79,29.63,29.55,9,4,23,0.04
2013-6-13,86,81,77,78,76,75,94,86,74,29.59,29.51,9,6,23,0.03
2013-6-14,84,80,76,78,76,75,96,88,78,29.56,29.50,12,7,23,0.05
2013-6-15,79,78,78,76,76,76,95,92,91,29.59,29.51,10,6,22,0.00
2013-6-16,86,81,77,77,76,75,93,85,71,29.60,29.51,9,5,21,0.02
2013-6-17,84,80,77,76,75,73,94,86,75,29.60,29.55,8,5,18,0.00
2013-6-18,86,81,77,76,75,73,90,82,71,29.60,29.51,9,6,20,0.00
2013-6-19,83,76,73,76,73,70,95,89,80,29.58,29.50,11,6,24,0.01
2013-6-20,84,80,76,76,74,71,92,82,66,29.59,29.51,11,6,29,0.01
2013-6-21,84,79,73,74,72,71,94,80,66,29.60,29.53,9,5,20,0.00
2013-6-22,81,74,72,74,71,70,95,91,81,29.59,29.53,4,1,17,0.00
2013-6-23,82,77,73,76,74,72,96,91,82,29.60,29.52,9,3,19,0.03
2013-6-24,85,79,73,78,75,72,98,89,77,29.60,29.54,10,4,19,0.08
2013-6-25,85,78,74,78,75,73,97,91,73,29.57,29.51,8,3,16,0.03
2013-6-26,84,77,73,78,74,70,96,92,78,29.57,29.50,12,4,22,0.02
2013-6-27,83,77,74,78,74,70,97,91,79,29.57,29.50,11,4,22,0.03
2013-6-28,86,80,76,76,75,71,96,84,70,29.57,29.50,9,5,18,0.07
2013-6-29,80,78,76,76,74,74,93,90,85,29.54,29.50,3,2,10,0.01
2013-6-30,83,77,73,77,74,72,98,93,79,29.58,29.48,11,4,21,0.00
2013-7-1,82,78,74,78,75,72,98,91,82,29.63,29.52,10,3,18,0.01
2013-7-2,82,75,72,76,73,71,98,92,79,29.66,29.56,9,2,22,0.02
2013-7-3,84,79,72,76,74,71,98,85,72,29.61,29.53,9,5,20,0.01
2013-7-4,85,81,78,77,75,73,91,84,69,29.61,29.53,10,6,21,0.00
2013-7-5,86,81,77,75,74,72,88,79,65,29.60,29.52,8,5,17,0.00
2013-7-6,84,78,73,75,74,71,97,86,72,29.56,29.46,9,4,20,0.00
2013-7-7,84,79,76,78,76,75,97,90,78,29.56,29.46,9,5,23,0.01
2013-7-8,86,81,76,78,76,74,96,86,74,29.62,29.50,10,6,22,0.01
2013-7-9,84,79,73,78,76,72,98,90,79,29.62,29.55,12,6,35,0.01
2013-7-10,85,81,79,79,77,75,94,88,77,29.60,29.52,11,6,24,0.00
2013-7-11,87,81,74,77,75,72,94,83,68,29.59,29.50,7,4,16,0.04
2013-7-12,87,80,74,75,72,70,95,80,59,29.55,29.46,7,2,15,0.00
2013-7-13,86,79,73,76,73,71,96,84,61,29.55,29.46,9,3,17,0.04
2013-7-14,85,78,72,76,74,71,98,88,69,29.54,29.46,8,2,15,0.14
2013-7-15,85,79,75,77,75,73,96,87,72,29.57,29.48,11,4,23,0.27
2013-7-16,87,81,76,78,76,74,95,85,73,29.60,29.53,10,5,20,0.02
2013-7-17,87,82,78,78,76,74,94,83,72,29.60,29.51,10,6,21,0.20
2013-7-18,81,76,72,78,75,70,99,95,88,29.63,29.50,11,4,22,1.97
2013-7-19,86,81,78,78,75,74,91,82,67,29.64,29.56,11,7,27,0.01
2013-7-20,86,82,77,76,75,73,89,81,69,29.62,29.54,9,6,20,0.00
2013-7-21,86,80,73,76,74,72,97,81,69,29.60,29.52,9,5,22,0.09
2013-7-22,83,79,75,78,76,72,94,90,83,29.61,29.53,8,3,20,0.08
2013-7-23,87,82,77,78,76,74,93,84,69,29.59,29.50,8,4,17,0.00
2013-7-24,87,80,73,77,75,72,97,84,71,29.56,29.48,8,3,18,0.00
2013-7-25,87,81,75,77,75,74,96,84,69,29.62,29.52,9,4,18,0.00
2013-7-26,87,80,75,77,75,73,95,86,70,29.62,29.55,10,4,24,0.30
2013-7-27,83,78,74,77,75,73,97,88,77,29.58,29.51,9,3,18,0.24
2013-7-28,87,79,73,77,75,72,98,87,67,29.58,29.50,7,2,13,0.06
2013-7-29,87,81,74,77,74,71,97,82,61,29.60,29.51,9,3,17,0.00
2013-7-30,87,81,76,78,76,73,96,85,71,29.63,29.51,9,4,18,0.14
2013-7-31,88,80,74,76,74,72,97,84,64,29.57,29.50,7,2,15,0.00
2013-8-1,85,79,75,77,75,72,98,88,74,29.58,29.50,11,4,22,0.60
2013-8-2,88,82,78,78,76,70,92,82,57,29.63,29.55,10,5,20,0.00
2013-8-3,87,82,79,79,77,75,89,83,72,29.63,29.53,9,5,19,0.00
2013-8-4,88,82,78,77,76,72,91,80,59,29.59,29.48,8,4,17,0.00
2013-8-5,87,80,75,76,74,72,96,83,62,29.55,29.45,10,3,19,0.04
2013-8-6,86,79,72,77,74,71,97,85,70,29.52,29.43,8,3,20,0.14
2013-8-7,87,79,74,77,75,72,98,87,69,29.51,29.41,9,4,20,0.26
2013-8-8,87,80,75,77,75,74,97,85,67,29.49,29.41,9,4,18,0.24
2013-8-9,87,80,75,78,75,71,97,87,69,29.51,29.43,10,4,27,0.23
2013-8-10,82,75,74,77,74,73,98,96,87,29.51,29.48,5,0,11,0.01
2013-8-11,86,80,70,77,74,69,96,83,66,29.57,29.46,11,4,30,0.73
2013-8-12,87,79,71,77,74,70,97,85,67,29.55,29.46,10,3,21,0.00
2013-8-13,86,80,73,77,75,72,97,84,68,29.55,29.48,9,4,19,0.00
2013-8-14,88,81,75,78,76,73,97,84,71,29.56,29.48,11,5,22,0.01
2013-8-15,89,82,75,77,74,71,95,78,57,29.56,29.47,9,3,18,0.00
2013-8-16,86,79,72,78,74,70,95,87,72,29.50,29.43,9,3,20,0.33
2013-8-17,80,80,79,76,76,76,90,90,89,29.49,29.48,4,2,12,0.00
2013-8-18,85,79,75,77,75,73,97,89,75,29.54,29.46,9,3,18,0.88
2013-8-19,87,80,73,78,76,72,98,86,70,29.49,29.40,8,4,17,0.13
2013-8-20,81,77,74,78,76,72,98,95,90,29.55,29.41,8,3,17,0.73
2013-8-21,85,80,74,79,76,72,98,88,75,29.55,29.47,8,4,16,0.08
2013-8-22,85,78,74,77,74,72,97,89,71,29.54,29.47,5,2,12,0.00
2013-8-23,86,80,74,79,76,73,98,89,78,29.52,29.43,7,3,14,0.10
2013-8-24,83,76,73,76,74,72,98,92,78,29.55,29.49,4,1,11,0.00
2013-8-25,87,79,74,76,74,73,96,88,67,29.57,29.49,11,3,23,0.05
2013-8-26,87,80,74,78,76,73,98,88,74,29.51,29.42,9,4,24,1.59
2013-8-27,86,80,75,78,76,74,98,87,73,29.53,29.43,8,4,16,0.09
2013-8-28,88,81,74,77,76,73,98,85,69,29.56,29.47,9,4,17,0.02
2013-8-29,87,80,75,78,76,74,97,88,69,29.55,29.46,8,3,16,0.40
2013-8-30,87,81,74,79,77,72,98,88,72,29.54,29.47,9,4,19,0.05
2013-8-31,87,79,73,79,76,72,98,89,72,29.52,29.45,7,3,15,0.02
2013-9-1,88,81,75,78,76,74,98,84,68,29.50,29.43,8,3,16,0.00
2013-9-2,87,80,74,78,74,72,96,84,64,29.49,29.39,10,3,24,0.16
2013-9-3,86,77,73,78,74,72,98,91,74,29.46,29.37,11,3,26,0.87
2013-9-4,82,76,73,78,75,72,98,95,85,29.45,29.38,10,2,25,1.15
2013-9-5,79,76,73,78,74,72,98,97,94,29.50,29.39,9,3,18,1.42
2013-9-6,81,78,73,77,75,72,99,93,86,29.50,29.42,8,3,17,0.01
2013-9-7,82,77,73,78,75,72,98,94,87,29.52,29.41,7,3,16,1.99
2013-9-8,86,79,71,80,76,71,98,90,78,29.50,29.40,9,4,18,0.59
2013-9-9,87,81,76,78,77,75,97,87,73,29.53,29.43,9,3,15,0.00
2013-9-10,86,80,73,78,75,72,96,86,72,29.55,29.46,8,3,17,0.03
2013-9-11,85,79,73,78,75,72,97,88,72,29.53,29.42,7,2,14,0.07
2013-9-12,80,76,74,78,75,73,98,97,93,29.42,29.37,7,1,17,0.29
2013-9-13,87,79,73,77,75,72,98,87,70,29.37,29.27,7,2,15,0.00
2013-9-14,86,79,72,78,75,72,98,89,73,29.48,29.34,8,2,16,0.07
2013-9-15,87,81,75,79,77,74,98,87,73,29.53,29.44,8,3,15,0.00
2013-9-16,87,81,76,80,77,75,97,89,75,29.53,29.42,8,3,20,0.21
2013-9-17,87,81,76,79,77,75,97,87,73,29.50,29.40,8,3,16,0.01
2013-9-18,87,80,76,80,77,75,98,90,74,29.49,29.39,8,3,18,0.14
2013-9-19,89,82,76,80,78,76,98,87,68,29.50,29.41,8,3,17,0.01
2013-9-20,89,81,76,79,76,74,96,86,70,29.47,29.38,9,2,15,0.00
2013-9-21,90,79,75,78,76,74,97,90,65,29.44,29.36,7,1,14,0.71
2013-9-22,87,81,74,79,76,74,98,84,69,29.50,29.40,7,3,14,0.00
2013-9-23,88,82,75,79,77,74,96,85,70,29.56,29.45,8,4,15,0.04
2013-9-24,88,81,76,79,76,72,96,85,60,29.53,29.43,10,4,18,0.06
2013-9-25,87,81,75,77,76,74,97,85,67,29.47,29.38,8,3,17,0.00
2013-9-26,87,81,75,78,76,74,97,85,66,29.47,29.37,8,3,17,0.01
2013-9-27,88,81,74,77,75,73,97,83,68,29.48,29.38,8,3,15,0.00
2013-9-28,88,81,74,78,75,72,96,84,61,29.50,29.41,9,3,18,0.00
2013-9-29,88,81,74,79,76,73,96,85,70,29.51,29.41,10,3,20,0.03
2013-9-30,87,80,75,79,76,73,97,87,74,29.55,29.46,9,2,15,0.11
2013-10-1,88,80,75,79,76,73,97,88,69,29.54,29.45,8,2,17,0.09
2013-10-2,88,80,73,77,75,72,99,85,63,29.50,29.41,8,3,20,0.01
2013-10-3,88,80,74,78,76,73,97,86,67,29.51,29.41,9,3,19,0.15
2013-10-4,86,77,73,79,73,-100,98,92,74,29.52,29.39,8,3,18,0.55
2013-10-5,88,78,70,77,74,70,99,89,65,29.50,29.40,7,2,12,0.02
2013-10-6,87,80,72,78,76,72,99,87,71,29.49,29.38,7,2,14,0.01
2013-10-7,88,82,75,78,75,-100,96,84,70,29.50,29.41,8,3,15,0.00
2013-10-8,84,79,76,79,77,74,98,92,80,29.53,29.43,6,2,14,0.37
2013-10-9,87,79,74,78,75,72,98,88,68,29.53,29.42,8,3,18,0.03
2013-10-10,85,76,72,78,74,71,98,92,76,29.50,29.41,9,2,23,1.43
2013-10-11,86,78,72,78,75,72,99,90,72,29.49,29.41,8,2,17,0.27
2013-10-12,86,79,72,78,75,72,99,90,74,29.48,29.39,8,2,14,0.06
2013-10-13,85,77,74,79,75,72,98,93,73,29.49,29.40,9,2,19,0.72
2013-10-14,86,81,75,76,75,74,99,83,69,29.47,29.39,9,4,19,0.00
2013-10-15,87,80,73,78,75,71,97,86,71,29.48,29.39,9,3,19,0.08
2013-10-16,86,79,73,78,74,71,96,85,68,29.48,29.39,8,2,14,0.01
2013-10-17,87,79,71,76,73,69,97,84,55,29.50,29.39,5,2,10,0.00
2013-10-18,85,78,72,76,74,71,97,87,71,29.49,29.40,5,1,10,0.00
2013-10-19,88,79,72,77,74,71,98,86,61,29.47,29.39,7,2,14,0.00
2013-10-20,87,79,72,78,74,71,98,87,72,29.49,29.40,9,2,18,0.00
2013-10-21,86,78,74,79,76,73,98,92,73,29.50,29.41,8,2,16,1.98
2013-10-22,87,80,75,79,76,73,98,86,66,29.51,29.42,9,3,18,0.03
2013-10-23,86,79,74,77,74,72,97,87,67,29.50,29.41,11,4,23,0.66
2013-10-24,85,80,74,77,76,73,98,86,74,29.54,29.45,9,4,18,0.22
2013-10-25,86,82,78,77,76,75,94,82,72,29.57,29.47,10,6,19,0.01
2013-10-26,86,78,73,78,75,71,99,89,72,29.54,29.44,13,4,27,2.01
2013-10-27,86,79,73,77,74,72,99,86,68,29.53,29.43,10,4,19,0.01
2013-10-28,86,79,72,77,74,71,97,85,63,29.55,29.44,9,3,22,0.10
2013-10-29,82,77,73,78,73,-100,98,92,86,29.54,29.42,10,2,24,0.93
2013-10-30,87,79,71,77,73,70,98,85,60,29.51,29.40,7,2,17,0.00
2013-10-31,84,78,71,77,74,69,98,88,76,29.48,29.35,10,3,31,0.02
2013-11-1,83,75,71,77,73,70,99,92,79,29.46,29.35,9,3,28,0.68
2013-11-2,83,76,71,78,74,70,99,94,81,29.47,29.36,7,2,13,0.31
2013-11-3,80,76,72,77,74,72,98,95,87,29.46,29.37,7,3,18,0.65
2013-11-4,85,78,72,77,74,72,99,88,67,29.45,29.35,6,2,12,0.19
2013-11-5,84,76,72,77,74,71,99,93,76,29.44,29.35,7,1,14,0.53
2013-11-6,85,77,72,76,74,71,99,89,67,29.44,29.36,7,2,13,0.01
2013-11-7,85,78,71,76,73,70,99,87,65,29.44,29.35,7,2,13,0.01
2013-11-8,85,78,72,76,74,72,98,88,71,29.47,29.37,8,2,15,0.20
2013-11-9,85,78,72,77,74,71,99,89,73,29.52,29.42,8,2,16,0.22
2013-11-10,85,78,72,77,74,72,98,88,69,29.53,29.44,8,3,16,0.16
2013-11-11,85,79,73,77,75,72,98,87,74,29.55,29.47,8,4,18,0.02
2013-11-12,84,80,77,78,74,-100,92,85,76,29.52,29.42,11,5,22,0.04
2013-11-13,85,79,72,77,74,71,96,85,71,29.51,29.42,9,4,18,0.15
2013-11-14,85,78,70,76,73,70,98,87,70,29.54,29.42,7,2,15,0.01
2013-11-15,82,75,72,77,74,71,98,94,83,29.53,29.40,7,1,16,0.42
2013-11-16,85,78,72,76,74,71,99,88,71,29.48,29.37,5,2,11,0.01
2013-11-17,84,78,72,74,71,69,97,82,61,29.41,29.31,7,3,17,0.09
2013-11-18,83,76,70,74,70,68,98,86,62,29.37,29.26,8,2,18,0.12
2013-11-19,82,74,69,72,70,68,98,86,68,29.43,29.30,6,2,14,0.00
2013-11-20,83,76,67,73,70,66,98,85,66,29.52,29.40,7,2,14,0.00
2013-11-21,82,76,71,75,73,70,97,90,79,29.54,29.45,8,2,17,0.02
2013-11-22,83,76,71,74,72,70,98,90,71,29.50,29.39,5,2,12,0.12
2013-11-23,84,75,68,73,70,67,99,85,63,29.47,29.37,7,2,14,0.00
2013-11-24,84,75,68,76,72,67,98,90,73,29.48,29.39,7,2,15,0.12
2013-11-25,72,72,71,72,71,70,99,98,98,29.46,29.44,2,0,5,0.00
2013-12-8,78,75,71,72,70,67,96,85,73,29.58,29.48,10,5,25,0.38
2013-12-9,82,78,74,73,72,69,93,82,71,29.61,29.52,9,5,21,0.05
2013-12-10,82,77,72,74,72,71,95,85,73,29.60,29.51,10,4,22,0.12
2013-12-11,80,76,72,75,73,71,98,90,80,29.62,29.51,7,4,21,0.21
2013-12-12,83,76,69,74,72,68,98,87,70,29.58,29.46,8,2,16,0.00
2013-12-13,82,76,69,73,70,68,98,83,69,29.57,29.47,8,4,17,0.00
2013-12-14,82,78,75,76,72,68,92,83,77,29.59,29.50,11,6,24,0.03
2013-12-15,79,76,73,75,72,68,95,88,74,29.62,29.51,11,5,24,0.94
2013-12-16,80,75,71,76,73,70,98,92,83,29.60,29.48,9,4,20,0.46
2013-12-17,82,76,71,74,72,69,96,87,73,29.60,29.47,7,3,17,0.17
2013-12-18,82,75,70,75,72,69,97,89,75,29.58,29.48,9,3,21,0.45
2013-12-19,81,76,69,74,71,68,98,86,72,29.58,29.49,8,4,25,0.04
2013-12-20,80,76,73,73,71,68,92,85,76,29.59,29.47,10,6,23,0.13
2013-12-21,80,74,67,74,70,66,98,88,76,29.58,29.49,8,4,21,0.26
2013-12-22,80,75,70,73,71,69,96,86,74,29.60,29.52,9,5,22,0.52
2013-12-23,80,74,68,73,70,67,98,87,71,29.58,29.46,11,4,27,0.34
2013-12-24,78,71,68,74,69,67,98,93,82,29.50,29.39,5,1,13,0.41